createdAt,value
2017-11-21T00:02:06.476Z,99.90
2017-11-21T00:04:34.096Z,99.90
2017-11-21T00:07:01.649Z,99.90
2017-11-21T00:09:29.191Z,99.90
2017-11-21T00:11:56.796Z,99.90
2017-11-21T00:14:24.345Z,99.90
2017-11-21T00:16:51.896Z,99.90
2017-11-21T00:19:20.451Z,99.90
2017-11-21T00:21:48.010Z,99.90
2017-11-21T00:24:15.554Z,99.90
2017-11-21T00:26:43.253Z,99.90
2017-11-21T00:29:10.814Z,99.90
2017-11-21T00:31:38.370Z,99.90
2017-11-21T00:34:05.968Z,99.90
2017-11-21T00:36:33.528Z,99.90
2017-11-21T00:39:01.081Z,99.90
2017-11-21T00:41:28.787Z,99.90
2017-11-21T00:43:56.330Z,99.90
2017-11-21T00:46:23.876Z,99.90
2017-11-21T00:48:52.246Z,99.90
2017-11-21T00:51:19.805Z,99.90
2017-11-21T00:53:47.356Z,99.90
2017-11-21T00:56:14.953Z,99.90
2017-11-21T00:58:42.509Z,99.90
2017-11-21T01:01:10.060Z,99.90
2017-11-21T01:03:37.672Z,99.90
2017-11-21T01:06:05.224Z,99.90
2017-11-21T01:08:32.778Z,99.90
2017-11-21T01:11:00.381Z,99.90
2017-11-21T01:13:28.706Z,99.90
2017-11-21T01:15:56.260Z,99.90
2017-11-21T01:18:24.616Z,99.90
2017-11-21T01:20:52.173Z,99.90
2017-11-21T01:23:19.732Z,99.90
2017-11-21T01:25:47.324Z,99.90
2017-11-21T01:28:14.872Z,99.90
2017-11-21T01:30:42.432Z,99.90
2017-11-21T01:33:10.039Z,99.90
2017-11-21T01:35:37.589Z,99.90
2017-11-21T01:38:05.141Z,99.90
2017-11-21T01:40:32.751Z,99.90
2017-11-21T01:43:00.320Z,99.90
2017-11-21T01:45:27.872Z,99.90
2017-11-21T01:47:55.557Z,99.90
2017-11-21T01:50:23.108Z,99.90
2017-11-21T01:52:50.665Z,99.90
2017-11-21T01:55:19.023Z,99.90
2017-11-21T01:57:46.576Z,99.90
2017-11-21T02:00:15.036Z,99.90
2017-11-21T02:02:42.697Z,99.90
2017-11-21T02:05:10.243Z,99.90
2017-11-21T02:07:38.551Z,99.90
2017-11-21T02:10:06.273Z,99.90
2017-11-21T02:12:33.833Z,99.90
2017-11-21T02:15:01.395Z,99.90
2017-11-21T02:17:29.003Z,99.90
2017-11-21T02:19:56.561Z,99.90
2017-11-21T02:22:24.112Z,99.90
2017-11-21T02:24:51.914Z,99.90
2017-11-21T02:27:19.498Z,99.90
2017-11-21T02:29:47.047Z,99.90
2017-11-21T02:32:14.811Z,99.90
2017-11-21T02:34:42.366Z,99.90
2017-11-21T02:37:09.916Z,99.90
2017-11-21T02:39:37.521Z,99.90
2017-11-21T02:42:05.092Z,99.90
2017-11-21T02:44:32.645Z,99.90
2017-11-21T02:47:00.244Z,99.90
2017-11-21T02:49:27.793Z,99.90
2017-11-21T02:51:55.356Z,99.90
2017-11-21T02:54:22.945Z,99.90
2017-11-21T02:56:50.488Z,99.90
2017-11-21T02:59:18.052Z,99.90
2017-11-21T03:01:46.428Z,99.90
2017-11-21T03:04:14.757Z,99.90
2017-11-21T03:06:42.308Z,99.90
2017-11-21T03:09:10.076Z,99.90
2017-11-21T03:11:38.388Z,99.90
2017-11-21T03:14:05.935Z,99.90
2017-11-21T03:16:34.296Z,99.90
2017-11-21T03:19:01.853Z,99.90
2017-11-21T03:21:41.404Z,99.90
2017-11-21T03:24:20.800Z,99.90
2017-11-21T03:26:49.171Z,99.90
2017-11-21T03:29:16.720Z,99.90
2017-11-21T03:31:44.268Z,99.90
2017-11-21T03:34:11.865Z,99.90
2017-11-21T03:36:39.423Z,99.90
2017-11-21T03:39:06.973Z,99.90
2017-11-21T03:41:34.567Z,99.90
2017-11-21T03:44:02.115Z,99.90
2017-11-21T03:46:29.678Z,99.90
2017-11-21T03:48:57.389Z,99.90
2017-11-21T03:51:24.936Z,99.90
2017-11-21T03:53:52.493Z,99.90
2017-11-21T03:56:20.655Z,99.90
2017-11-21T03:58:48.980Z,99.90
2017-11-21T04:01:16.532Z,99.90
2017-11-21T04:03:44.133Z,99.90
2017-11-21T04:06:11.696Z,99.90
2017-11-21T04:08:39.243Z,99.90
2017-11-21T04:11:07.613Z,99.90
2017-11-21T04:13:35.937Z,99.90
2017-11-21T04:16:03.484Z,99.90
2017-11-21T04:18:31.845Z,99.90
2017-11-21T04:20:59.400Z,99.90
2017-11-21T04:23:26.949Z,99.90
2017-11-21T04:25:54.555Z,99.90
2017-11-21T04:28:22.099Z,99.90
2017-11-21T04:30:49.649Z,99.90
2017-11-21T04:33:17.257Z,99.90
2017-11-21T04:35:44.824Z,99.90
2017-11-21T04:38:13.605Z,99.90
2017-11-21T04:40:42.043Z,99.90
2017-11-21T04:43:09.601Z,99.90
2017-11-21T04:45:37.148Z,99.90
2017-11-21T04:48:04.769Z,99.90
2017-11-21T04:50:33.104Z,99.90
2017-11-21T04:53:00.659Z,99.90
2017-11-21T04:55:28.259Z,99.90
2017-11-21T04:57:55.814Z,99.90
2017-11-21T05:00:23.363Z,99.90
2017-11-21T05:02:51.750Z,99.90
2017-11-21T05:05:20.076Z,99.90
2017-11-21T05:07:47.635Z,99.90
2017-11-21T05:10:15.228Z,99.90
2017-11-21T05:12:42.774Z,99.90
2017-11-21T05:15:10.333Z,99.90
2017-11-21T05:17:37.929Z,99.90
2017-11-21T05:20:05.481Z,99.90
2017-11-21T05:22:33.036Z,99.90
2017-11-21T05:25:02.021Z,99.90
2017-11-21T05:27:29.577Z,99.90
2017-11-21T05:29:57.138Z,99.90
2017-11-21T05:32:36.672Z,99.90
2017-11-21T05:35:04.268Z,99.90
2017-11-21T05:37:31.828Z,99.90
2017-11-21T05:39:59.437Z,99.90
2017-11-21T05:42:27.753Z,99.90
2017-11-21T05:44:55.307Z,99.90
2017-11-21T05:47:23.756Z,99.90
2017-11-21T05:49:51.313Z,99.90
2017-11-21T05:52:18.870Z,99.90
2017-11-21T05:54:46.469Z,99.90
2017-11-21T05:57:14.017Z,99.90
2017-11-21T05:59:41.568Z,99.90
2017-11-21T06:02:09.304Z,99.90
2017-11-21T06:04:38.361Z,99.90
2017-11-21T06:07:05.908Z,99.90
2017-11-21T06:09:34.369Z,99.90
2017-11-21T06:12:03.423Z,99.90
2017-11-21T06:14:30.968Z,99.90
2017-11-21T06:16:59.340Z,99.90
2017-11-21T06:19:27.657Z,99.90
2017-11-21T06:21:55.976Z,99.90
2017-11-21T06:24:23.712Z,99.90
2017-11-21T06:26:52.030Z,99.90
2017-11-21T06:29:19.576Z,99.90
2017-11-21T06:31:48.125Z,99.90
2017-11-21T06:34:15.676Z,99.90
2017-11-21T06:36:43.229Z,99.90
2017-11-21T06:39:10.824Z,99.90
2017-11-21T06:41:38.375Z,99.90
2017-11-21T06:44:05.919Z,99.90
2017-11-21T06:46:34.473Z,99.90
2017-11-21T06:49:02.032Z,99.90
2017-11-21T06:51:29.577Z,99.90
2017-11-21T06:53:57.176Z,99.90
2017-11-21T06:56:24.742Z,99.90
2017-11-21T06:58:52.300Z,99.90
2017-11-21T07:01:20.016Z,99.90
2017-11-21T07:03:47.592Z,99.90
2017-11-21T07:06:15.149Z,99.90
2017-11-21T07:08:42.753Z,99.90
2017-11-21T07:11:10.305Z,99.90
2017-11-21T07:13:37.866Z,99.90
2017-11-21T07:16:05.609Z,99.90
2017-11-21T07:18:33.157Z,99.90
2017-11-21T07:21:01.473Z,99.90
2017-11-21T07:23:29.080Z,99.90
2017-11-21T07:25:56.628Z,99.90
2017-11-21T07:28:24.184Z,99.90
2017-11-21T07:30:52.003Z,99.90
2017-11-21T07:33:19.625Z,99.90
2017-11-21T07:35:47.205Z,99.90
2017-11-21T07:38:14.824Z,99.90
2017-11-21T07:40:42.376Z,99.90
2017-11-21T07:43:09.930Z,99.90
2017-11-21T07:45:37.528Z,99.90
2017-11-21T07:48:05.076Z,99.90
2017-11-21T07:50:33.113Z,99.90
2017-11-21T07:53:01.493Z,99.90
2017-11-21T07:55:29.049Z,99.90
2017-11-21T07:57:56.597Z,99.90
2017-11-21T08:00:24.208Z,99.90
2017-11-21T08:02:51.761Z,99.90
2017-11-21T08:05:19.308Z,99.90
2017-11-21T08:07:46.907Z,99.90
2017-11-21T08:10:14.501Z,99.90
2017-11-21T08:12:42.823Z,99.90
2017-11-21T08:15:10.506Z,99.90
2017-11-21T08:17:38.070Z,99.90
2017-11-21T08:20:05.624Z,99.90
2017-11-21T08:22:34.163Z,99.90
2017-11-21T08:25:01.992Z,99.90
2017-11-21T08:27:30.304Z,99.90
2017-11-21T08:29:57.910Z,99.90
2017-11-21T08:32:25.465Z,99.90
2017-11-21T08:34:53.016Z,99.90
2017-11-21T08:37:20.625Z,99.90
2017-11-21T08:39:48.180Z,99.90
2017-11-21T08:42:15.762Z,99.90
2017-11-21T08:44:43.531Z,99.90
2017-11-21T08:47:11.077Z,99.90
2017-11-21T08:49:38.633Z,99.90
2017-11-21T08:52:06.236Z,99.90
2017-11-21T08:54:33.789Z,99.90
2017-11-21T08:57:01.351Z,99.90
2017-11-21T08:59:29.209Z,99.90
2017-11-21T09:01:57.699Z,99.90
2017-11-21T09:04:26.016Z,99.90
2017-11-21T09:06:53.628Z,99.90
2017-11-21T09:09:21.186Z,99.90
2017-11-21T09:11:48.740Z,99.60
2017-11-21T09:14:16.356Z,99.30
2017-11-21T09:16:43.905Z,99.50
2017-11-21T09:19:11.670Z,99.60
2017-11-21T09:21:39.460Z,99.70
2017-11-21T09:24:07.019Z,99.50
2017-11-21T09:26:34.568Z,99.50
2017-11-21T09:29:02.268Z,99.20
2017-11-21T09:31:29.821Z,99.10
2017-11-21T09:33:57.372Z,99.50
2017-11-21T09:36:25.227Z,99.80
2017-11-21T09:38:52.777Z,99.60
2017-11-21T09:41:20.324Z,99.10
2017-11-21T09:43:47.930Z,99.10
2017-11-21T09:46:15.492Z,99.40
2017-11-21T09:48:43.041Z,99.80
2017-11-21T09:51:10.661Z,99.00
2017-11-21T09:53:38.975Z,98.60
2017-11-21T09:56:06.520Z,98.60
2017-11-21T09:58:34.905Z,98.90
2017-11-21T10:01:02.460Z,98.90
2017-11-21T10:03:30.020Z,98.70
2017-11-21T10:05:57.826Z,98.90
2017-11-21T10:08:26.143Z,99.10
2017-11-21T10:10:54.100Z,99.10
2017-11-21T10:13:22.565Z,99.70
2017-11-21T10:15:50.124Z,99.40
2017-11-21T10:18:17.687Z,99.50
2017-11-21T10:20:45.293Z,99.20
2017-11-21T10:23:12.844Z,99.10
2017-11-21T10:25:40.392Z,99.00
2017-11-21T10:28:08.184Z,99.30
2017-11-21T10:30:35.814Z,99.40
2017-11-21T10:33:04.124Z,99.40
2017-11-21T10:35:31.925Z,99.40
2017-11-21T10:37:59.471Z,99.30
2017-11-21T10:40:27.028Z,99.30
2017-11-21T10:42:54.745Z,99.30
2017-11-21T10:45:22.296Z,99.10
2017-11-21T10:47:49.852Z,99.10
2017-11-21T10:50:17.594Z,99.20
2017-11-21T10:52:45.912Z,99.20
2017-11-21T10:55:13.517Z,98.90
2017-11-21T10:57:41.121Z,99.00
2017-11-21T11:00:08.672Z,98.90
2017-11-21T11:02:36.220Z,98.50
2017-11-21T11:05:03.835Z,98.30
2017-11-21T11:07:32.156Z,98.60
2017-11-21T11:09:59.713Z,98.30
2017-11-21T11:12:28.267Z,99.00
2017-11-21T11:14:55.817Z,99.00
2017-11-21T11:17:23.361Z,98.70
2017-11-21T11:19:51.085Z,98.50
2017-11-21T11:22:18.637Z,98.40
2017-11-21T11:24:46.188Z,98.30
2017-11-21T11:27:13.784Z,98.50
2017-11-21T11:29:41.329Z,98.40
2017-11-21T11:32:08.888Z,98.50
2017-11-21T11:34:37.248Z,98.00
2017-11-21T11:37:05.913Z,98.30
2017-11-21T11:39:33.460Z,98.30
2017-11-21T11:42:01.160Z,98.30
2017-11-21T11:44:28.712Z,98.20
2017-11-21T11:46:56.264Z,97.60
2017-11-21T11:49:24.424Z,98.10
2017-11-21T11:51:53.476Z,98.20
2017-11-21T11:54:21.021Z,98.10
2017-11-21T11:56:49.518Z,97.70
2017-11-21T11:59:17.081Z,97.70
2017-11-21T12:01:45.498Z,97.30
2017-11-21T12:04:13.276Z,97.30
2017-11-21T12:06:40.825Z,97.40
2017-11-21T12:09:09.163Z,97.90
2017-11-21T12:11:36.904Z,97.90
2017-11-21T12:14:04.620Z,98.00
2017-11-21T12:16:32.179Z,98.30
2017-11-21T12:18:59.776Z,97.70
2017-11-21T12:21:27.331Z,97.90
2017-11-21T12:23:54.881Z,97.60
2017-11-21T12:26:22.621Z,97.40
2017-11-21T12:28:50.197Z,98.00
2017-11-21T12:31:18.521Z,98.50
2017-11-21T12:33:46.120Z,98.50
2017-11-21T12:36:13.666Z,98.10
2017-11-21T12:38:41.226Z,98.50
2017-11-21T12:41:08.852Z,98.30
2017-11-21T12:43:37.177Z,98.30
2017-11-21T12:46:04.725Z,98.30
2017-11-21T12:48:33.099Z,99.10
2017-11-21T12:51:00.651Z,99.10
2017-11-21T12:53:28.196Z,99.40
2017-11-21T12:55:55.805Z,99.20
2017-11-21T12:58:23.380Z,99.10
2017-11-21T13:00:51.733Z,98.90
2017-11-21T13:03:19.901Z,98.80
2017-11-21T13:05:47.678Z,99.00
2017-11-21T13:08:15.679Z,98.90
2017-11-21T13:10:43.745Z,99.10
2017-11-21T13:13:12.314Z,99.20
2017-11-21T13:15:40.952Z,99.60
2017-11-21T13:18:08.847Z,99.60
2017-11-21T13:20:37.716Z,99.30
2017-11-21T13:23:06.754Z,98.40
2017-11-21T13:25:36.099Z,98.50
2017-11-21T13:28:04.116Z,98.50
2017-11-21T13:30:31.811Z,98.70
2017-11-21T13:32:59.771Z,98.90
2017-11-21T13:35:27.671Z,98.40
2017-11-21T13:37:55.428Z,99.10
2017-11-21T13:40:23.408Z,98.80
2017-11-21T13:42:50.960Z,99.30
2017-11-21T13:45:18.540Z,99.30
2017-11-21T13:47:46.132Z,99.60
2017-11-21T13:50:13.811Z,99.50
2017-11-21T13:52:42.338Z,99.60
2017-11-21T13:55:10.463Z,99.60
2017-11-21T13:57:38.223Z,99.60
2017-11-21T14:00:07.508Z,99.90
2017-11-21T14:02:43.680Z,99.90
2017-11-21T14:05:11.301Z,99.90
2017-11-21T14:07:38.859Z,99.90
2017-11-21T14:10:06.466Z,99.90
2017-11-21T14:12:34.024Z,99.90
2017-11-21T14:15:01.698Z,99.90
2017-11-21T14:17:29.901Z,99.90
2017-11-21T14:19:57.451Z,99.90
2017-11-21T14:22:24.996Z,99.90
2017-11-21T14:24:53.364Z,99.90
2017-11-21T14:27:20.924Z,99.90
2017-11-21T14:29:49.985Z,99.90
2017-11-21T14:32:17.697Z,99.90
2017-11-21T14:34:45.269Z,99.90
2017-11-21T14:37:12.845Z,99.90
2017-11-21T14:39:40.439Z,99.90
2017-11-21T14:42:08.767Z,99.90
2017-11-21T14:44:36.316Z,99.90
2017-11-21T14:47:04.700Z,99.90
2017-11-21T14:49:33.025Z,99.90
2017-11-21T14:52:01.704Z,99.90
2017-11-21T14:54:29.304Z,99.90
2017-11-21T14:56:56.913Z,99.90
2017-11-21T14:59:24.509Z,99.90
2017-11-21T15:01:52.200Z,99.90
2017-11-21T15:04:19.747Z,99.90
2017-11-21T15:06:48.061Z,99.90
2017-11-21T15:09:15.768Z,99.90
2017-11-21T15:11:43.328Z,99.90
2017-11-21T15:14:10.875Z,99.90
2017-11-21T15:16:38.484Z,99.90
2017-11-21T15:19:06.810Z,99.90
2017-11-21T15:21:35.137Z,99.90
2017-11-21T15:24:02.736Z,99.90
2017-11-21T15:26:30.622Z,99.90
2017-11-21T15:28:58.173Z,99.90
2017-11-21T15:31:25.788Z,99.90
2017-11-21T15:33:54.122Z,99.90
2017-11-21T15:36:21.691Z,99.90
2017-11-21T15:38:49.403Z,99.90
2017-11-21T15:41:17.739Z,99.90
2017-11-21T15:43:45.284Z,99.90
2017-11-21T15:46:13.650Z,99.90
2017-11-21T15:48:41.205Z,99.90
2017-11-21T15:51:08.756Z,99.90
2017-11-21T15:53:36.356Z,99.90
2017-11-21T15:56:03.940Z,99.90
2017-11-21T15:58:33.004Z,99.90
2017-11-21T16:01:00.602Z,99.90
2017-11-21T16:03:28.169Z,99.90
2017-11-21T16:05:55.717Z,99.90
2017-11-21T16:08:23.427Z,99.90
2017-11-21T16:10:51.760Z,99.90
2017-11-21T16:13:19.316Z,99.90
2017-11-21T16:15:47.874Z,99.90
2017-11-21T16:18:15.425Z,99.90
2017-11-21T16:20:42.980Z,99.90
2017-11-21T16:23:10.688Z,99.90
2017-11-21T16:25:38.236Z,99.90
2017-11-21T16:28:06.026Z,99.90
2017-11-21T16:30:33.832Z,99.90
2017-11-21T16:33:01.391Z,99.90
2017-11-21T16:35:28.943Z,99.90
2017-11-21T16:37:56.549Z,99.90
2017-11-21T16:40:24.305Z,99.90
2017-11-21T16:42:53.937Z,99.90
2017-11-21T16:45:21.645Z,99.90
2017-11-21T16:47:50.019Z,99.90
2017-11-21T16:50:17.904Z,99.90
2017-11-21T16:52:46.289Z,99.90
2017-11-21T16:55:13.857Z,99.90
2017-11-21T16:57:41.415Z,99.90
2017-11-21T17:00:09.037Z,99.90
2017-11-21T17:02:36.601Z,99.90
2017-11-21T17:05:04.153Z,99.90
2017-11-21T17:07:32.551Z,99.90
2017-11-21T17:10:00.876Z,99.90
2017-11-21T17:12:28.422Z,99.90
2017-11-21T17:14:56.044Z,99.90
2017-11-21T17:17:23.607Z,99.90
2017-11-21T17:19:51.170Z,99.90
2017-11-21T17:22:18.955Z,99.90
2017-11-21T17:24:46.516Z,99.90
2017-11-21T17:27:14.068Z,99.90
2017-11-21T17:29:41.678Z,99.90
2017-11-21T17:32:09.464Z,99.90
2017-11-21T17:34:37.023Z,99.90
2017-11-21T17:37:04.780Z,99.90
2017-11-21T17:39:32.333Z,99.90
2017-11-21T17:41:59.933Z,99.90
2017-11-21T17:44:27.541Z,99.90
2017-11-21T17:46:55.159Z,99.90
2017-11-21T17:49:23.114Z,99.90
2017-11-21T17:51:51.577Z,99.90
2017-11-21T17:54:20.791Z,99.90
2017-11-21T17:56:48.460Z,99.90
2017-11-21T17:59:16.167Z,99.90
2017-11-21T18:01:46.278Z,99.90
2017-11-21T18:04:15.777Z,99.90
2017-11-21T18:06:44.936Z,99.90
2017-11-21T18:09:14.342Z,99.90
2017-11-21T18:11:42.890Z,99.90
2017-11-21T18:14:10.581Z,99.90
2017-11-21T18:16:38.202Z,99.90
2017-11-21T18:19:05.773Z,99.90
2017-11-21T18:21:33.372Z,99.90
2017-11-21T18:24:01.539Z,99.90
2017-11-21T18:26:31.865Z,99.90
2017-11-21T18:29:00.538Z,99.90
2017-11-21T18:31:28.108Z,99.90
2017-11-21T18:33:57.798Z,99.90
2017-11-21T18:36:26.977Z,99.90
2017-11-21T18:38:56.992Z,99.90
2017-11-21T18:41:24.579Z,99.90
2017-11-21T18:43:52.208Z,99.90
2017-11-21T18:46:20.549Z,99.90
2017-11-21T18:48:48.101Z,99.90
2017-11-21T18:51:15.806Z,99.90
2017-11-21T18:53:43.364Z,99.90
2017-11-21T18:56:10.916Z,99.90
2017-11-21T18:58:39.581Z,99.90
2017-11-21T19:01:07.329Z,99.90
2017-11-21T19:03:34.895Z,99.90
2017-11-21T19:06:03.216Z,99.90
2017-11-21T19:08:31.652Z,99.90
2017-11-21T19:10:59.330Z,99.90
2017-11-21T19:13:27.612Z,99.90
2017-11-21T19:15:55.442Z,99.90
2017-11-21T19:18:23.091Z,99.90
2017-11-21T19:20:50.693Z,99.90
2017-11-21T19:23:19.511Z,99.90
2017-11-21T19:25:47.134Z,99.90
2017-11-21T19:28:14.982Z,99.90
2017-11-21T19:30:42.740Z,99.90
2017-11-21T19:33:10.299Z,99.90
2017-11-21T19:35:38.414Z,99.90
2017-11-21T19:38:07.174Z,99.90
2017-11-21T19:40:35.843Z,99.90
2017-11-21T19:43:03.893Z,99.90
2017-11-21T19:45:31.465Z,99.90
2017-11-21T19:47:59.233Z,99.90
2017-11-21T19:50:27.881Z,99.90
2017-11-21T19:52:56.595Z,99.90
2017-11-21T19:55:24.191Z,99.90
2017-11-21T19:57:52.472Z,99.90
2017-11-21T20:00:20.301Z,99.90
2017-11-21T20:02:52.083Z,99.90
2017-11-21T20:05:20.640Z,99.90
2017-11-21T20:07:48.360Z,99.90
2017-11-21T20:10:15.920Z,99.90
2017-11-21T20:12:44.310Z,99.90
2017-11-21T20:15:12.538Z,99.90
2017-11-21T20:17:40.106Z,99.90
2017-11-21T20:20:08.743Z,99.90
2017-11-21T20:22:37.027Z,99.90
2017-11-21T20:25:04.652Z,99.90
2017-11-21T20:27:32.256Z,99.90
2017-11-21T20:30:00.664Z,99.90
2017-11-21T20:32:28.204Z,99.90
2017-11-21T20:34:57.719Z,99.90
2017-11-21T20:37:26.135Z,99.90
2017-11-21T20:39:53.704Z,99.90
2017-11-21T20:42:21.309Z,99.90
2017-11-21T20:44:48.851Z,99.90
2017-11-21T20:47:16.408Z,99.90
2017-11-21T20:49:44.027Z,99.90
2017-11-21T20:52:11.577Z,99.90
2017-11-21T20:54:39.129Z,99.90
2017-11-21T20:57:06.931Z,99.90
2017-11-21T20:59:34.588Z,99.90
2017-11-21T21:02:02.258Z,99.90
2017-11-21T21:04:29.956Z,99.90
2017-11-21T21:06:57.645Z,99.90
2017-11-21T21:09:25.204Z,99.90
2017-11-21T21:11:54.560Z,99.90
2017-11-21T21:14:22.884Z,99.90
2017-11-21T21:16:50.545Z,99.90
2017-11-21T21:19:18.143Z,99.90
2017-11-21T21:21:45.697Z,99.90
2017-11-21T21:24:14.298Z,99.90
2017-11-21T21:26:42.955Z,99.90
2017-11-21T21:29:10.573Z,99.90
2017-11-21T21:31:38.121Z,99.90
2017-11-21T21:34:05.819Z,99.90
2017-11-21T21:36:33.427Z,99.90
2017-11-21T21:39:00.997Z,99.90
2017-11-21T21:41:28.607Z,99.90
2017-11-21T21:43:56.151Z,99.90
2017-11-21T21:46:23.702Z,99.90
2017-11-21T21:48:51.388Z,99.90
2017-11-21T21:51:18.933Z,99.90
2017-11-21T21:53:46.502Z,99.90
2017-11-21T21:56:14.189Z,99.90
2017-11-21T21:58:41.735Z,99.90
2017-11-21T22:01:09.287Z,99.90
2017-11-21T22:03:36.888Z,99.90
2017-11-21T22:06:04.428Z,99.90
2017-11-21T22:08:31.973Z,99.90
2017-11-21T22:11:00.431Z,99.90
2017-11-21T22:13:27.973Z,99.90
2017-11-21T22:15:55.509Z,99.90
2017-11-21T22:18:23.881Z,99.90
2017-11-21T22:20:51.428Z,99.90
2017-11-21T22:23:18.972Z,99.90
2017-11-21T22:25:46.567Z,99.90
2017-11-21T22:28:14.109Z,99.90
2017-11-21T22:30:41.656Z,99.90
2017-11-21T22:33:10.021Z,99.90
2017-11-21T22:35:37.565Z,99.90
2017-11-21T22:38:05.108Z,99.90
2017-11-21T22:40:32.691Z,99.90
2017-11-21T22:43:00.244Z,99.90
2017-11-21T22:45:27.784Z,99.90
2017-11-21T22:47:55.384Z,99.90
2017-11-21T22:50:22.945Z,99.90
2017-11-21T22:52:51.252Z,99.90
2017-11-21T22:55:18.865Z,99.90
2017-11-21T22:57:46.408Z,99.90
2017-11-21T23:00:13.966Z,99.90
2017-11-21T23:02:41.662Z,99.90
2017-11-21T23:05:09.205Z,99.90
2017-11-21T23:07:36.747Z,99.90
2017-11-21T23:10:04.440Z,99.90
2017-11-21T23:12:32.740Z,99.90
2017-11-21T23:15:00.284Z,99.90
2017-11-21T23:17:27.873Z,99.90
2017-11-21T23:19:56.181Z,99.90
2017-11-21T23:22:23.980Z,99.90
2017-11-21T23:24:51.585Z,99.90
2017-11-21T23:27:19.133Z,99.90
2017-11-21T23:29:46.701Z,99.90
2017-11-21T23:32:14.601Z,99.90
2017-11-21T23:34:42.144Z,99.90
2017-11-21T23:37:09.697Z,99.90
2017-11-21T23:39:37.302Z,99.90
2017-11-21T23:42:04.852Z,99.90
2017-11-21T23:44:32.404Z,99.90
2017-11-21T23:47:00.021Z,99.90
2017-11-21T23:49:27.568Z,99.90
2017-11-21T23:51:55.115Z,99.90
2017-11-21T23:54:22.729Z,99.90
2017-11-21T23:56:50.299Z,99.90
2017-11-21T23:59:17.845Z,99.90
